sensor_id;sensor_type;location;lat;lon;timestamp;P1;durP1;ratioP1;P2;durP2;ratioP2
46767;SDS011;69007;48.978;18.066;2023-07-16T00:02:21;8.43;;;7.53;;
46767;SDS011;69007;48.978;18.066;2023-07-16T00:04:46;8.90;;;8.10;;
46767;SDS011;69007;48.978;18.066;2023-07-16T00:07:11;10.13;;;7.82;;
46767;SDS011;69007;48.978;18.066;2023-07-16T00:09:37;10.50;;;8.52;;
46767;SDS011;69007;48.978;18.066;2023-07-16T00:12:02;8.88;;;8.18;;
46767;SDS011;69007;48.978;18.066;2023-07-16T00:14:28;7.97;;;7.25;;
46767;SDS011;69007;48.978;18.066;2023-07-16T00:16:53;8.75;;;7.85;;
46767;SDS011;69007;48.978;18.066;2023-07-16T00:19:19;8.80;;;7.90;;
46767;SDS011;69007;48.978;18.066;2023-07-16T00:21:44;8.35;;;7.60;;
46767;SDS011;69007;48.978;18.066;2023-07-16T00:24:09;9.35;;;8.55;;
46767;SDS011;69007;48.978;18.066;2023-07-16T00:26:35;10.52;;;8.25;;
46767;SDS011;69007;48.978;18.066;2023-07-16T00:29:00;15.70;;;8.98;;
46767;SDS011;69007;48.978;18.066;2023-07-16T00:31:25;8.48;;;7.60;;
46767;SDS011;69007;48.978;18.066;2023-07-16T00:33:51;10.27;;;7.40;;
46767;SDS011;69007;48.978;18.066;2023-07-16T00:36:16;8.32;;;7.45;;
46767;SDS011;69007;48.978;18.066;2023-07-16T00:38:42;8.60;;;7.78;;
46767;SDS011;69007;48.978;18.066;2023-07-16T00:41:07;8.38;;;7.50;;
46767;SDS011;69007;48.978;18.066;2023-07-16T00:43:33;9.77;;;7.68;;
46767;SDS011;69007;48.978;18.066;2023-07-16T00:45:58;7.60;;;6.90;;
46767;SDS011;69007;48.978;18.066;2023-07-16T00:48:24;8.18;;;7.38;;
46767;SDS011;69007;48.978;18.066;2023-07-16T00:50:53;8.93;;;7.13;;
46767;SDS011;69007;48.978;18.066;2023-07-16T00:53:19;9.40;;;8.50;;
46767;SDS011;69007;48.978;18.066;2023-07-16T00:55:45;8.15;;;7.35;;
46767;SDS011;69007;48.978;18.066;2023-07-16T00:58:10;10.05;;;7.43;;
46767;SDS011;69007;48.978;18.066;2023-07-16T01:00:37;10.40;;;7.35;;
46767;SDS011;69007;48.978;18.066;2023-07-16T01:03:04;7.97;;;7.07;;
46767;SDS011;69007;48.978;18.066;2023-07-16T01:06:14;7.80;;;7.10;;
46767;SDS011;69007;48.978;18.066;2023-07-16T01:08:38;12.68;;;7.70;;
46767;SDS011;69007;48.978;18.066;2023-07-16T01:11:07;15.93;;;9.57;;
46767;SDS011;69007;48.978;18.066;2023-07-16T01:13:34;8.35;;;7.30;;
46767;SDS011;69007;48.978;18.066;2023-07-16T01:16:02;7.93;;;7.13;;
46767;SDS011;69007;48.978;18.066;2023-07-16T01:18:27;7.78;;;6.90;;
46767;SDS011;69007;48.978;18.066;2023-07-16T01:20:53;11.55;;;8.65;;
46767;SDS011;69007;48.978;18.066;2023-07-16T01:25:56;10.80;;;7.43;;
46767;SDS011;69007;48.978;18.066;2023-07-16T01:28:27;9.10;;;7.68;;
46767;SDS011;69007;48.978;18.066;2023-07-16T01:31:08;10.32;;;7.65;;
46767;SDS011;69007;48.978;18.066;2023-07-16T01:33:35;8.25;;;7.38;;
46767;SDS011;69007;48.978;18.066;2023-07-16T01:36:05;9.88;;;7.32;;
46767;SDS011;69007;48.978;18.066;2023-07-16T01:38:33;8.63;;;7.47;;
46767;SDS011;69007;48.978;18.066;2023-07-16T01:40:59;9.38;;;7.55;;
46767;SDS011;69007;48.978;18.066;2023-07-16T01:43:25;10.23;;;7.88;;
46767;SDS011;69007;48.978;18.066;2023-07-16T01:45:50;11.00;;;7.72;;
46767;SDS011;69007;48.978;18.066;2023-07-16T01:48:24;8.73;;;7.50;;
46767;SDS011;69007;48.978;18.066;2023-07-16T01:50:55;9.27;;;7.53;;
46767;SDS011;69007;48.978;18.066;2023-07-16T01:53:20;10.00;;;8.25;;
46767;SDS011;69007;48.978;18.066;2023-07-16T01:55:46;9.60;;;7.28;;
46767;SDS011;69007;48.978;18.066;2023-07-16T01:58:11;7.85;;;7.05;;
46767;SDS011;69007;48.978;18.066;2023-07-16T02:00:36;8.45;;;7.38;;
46767;SDS011;69007;48.978;18.066;2023-07-16T02:03:02;10.45;;;7.68;;
46767;SDS011;69007;48.978;18.066;2023-07-16T02:05:27;7.85;;;7.15;;
46767;SDS011;69007;48.978;18.066;2023-07-16T02:07:53;8.05;;;7.22;;
46767;SDS011;69007;48.978;18.066;2023-07-16T02:10:18;7.50;;;6.80;;
46767;SDS011;69007;48.978;18.066;2023-07-16T02:12:43;9.63;;;7.20;;
46767;SDS011;69007;48.978;18.066;2023-07-16T02:15:09;7.43;;;6.80;;
46767;SDS011;69007;48.978;18.066;2023-07-16T02:17:35;8.82;;;7.43;;
46767;SDS011;69007;48.978;18.066;2023-07-16T02:20:00;7.45;;;6.75;;
46767;SDS011;69007;48.978;18.066;2023-07-16T02:22:26;11.55;;;6.90;;
46767;SDS011;69007;48.978;18.066;2023-07-16T02:24:51;7.25;;;6.45;;
46767;SDS011;69007;48.978;18.066;2023-07-16T02:27:17;8.18;;;6.90;;
46767;SDS011;69007;48.978;18.066;2023-07-16T02:29:42;8.80;;;6.80;;
46767;SDS011;69007;48.978;18.066;2023-07-16T02:32:07;8.57;;;7.20;;
46767;SDS011;69007;48.978;18.066;2023-07-16T02:34:33;6.85;;;6.20;;
46767;SDS011;69007;48.978;18.066;2023-07-16T02:36:58;9.05;;;6.78;;
46767;SDS011;69007;48.978;18.066;2023-07-16T02:39:23;7.13;;;6.10;;
46767;SDS011;69007;48.978;18.066;2023-07-16T02:41:49;8.70;;;6.88;;
46767;SDS011;69007;48.978;18.066;2023-07-16T02:44:14;9.32;;;6.68;;
46767;SDS011;69007;48.978;18.066;2023-07-16T02:46:40;7.47;;;5.95;;
46767;SDS011;69007;48.978;18.066;2023-07-16T02:49:06;6.35;;;5.55;;
46767;SDS011;69007;48.978;18.066;2023-07-16T02:51:32;5.82;;;5.30;;
46767;SDS011;69007;48.978;18.066;2023-07-16T02:53:57;9.88;;;5.20;;
46767;SDS011;69007;48.978;18.066;2023-07-16T02:56:22;7.72;;;5.50;;
46767;SDS011;69007;48.978;18.066;2023-07-16T02:58:48;6.65;;;6.05;;
46767;SDS011;69007;48.978;18.066;2023-07-16T03:01:13;9.05;;;6.55;;
46767;SDS011;69007;48.978;18.066;2023-07-16T03:03:39;7.53;;;5.97;;
46767;SDS011;69007;48.978;18.066;2023-07-16T03:06:04;13.57;;;5.75;;
46767;SDS011;69007;48.978;18.066;2023-07-16T03:08:29;6.30;;;5.70;;
46767;SDS011;69007;48.978;18.066;2023-07-16T03:10:56;7.45;;;6.47;;
46767;SDS011;69007;48.978;18.066;2023-07-16T03:13:22;8.10;;;5.75;;
46767;SDS011;69007;48.978;18.066;2023-07-16T03:15:47;8.75;;;6.13;;
46767;SDS011;69007;48.978;18.066;2023-07-16T03:18:13;7.07;;;5.55;;
46767;SDS011;69007;48.978;18.066;2023-07-16T03:20:38;5.82;;;5.20;;
46767;SDS011;69007;48.978;18.066;2023-07-16T03:23:04;5.43;;;4.97;;
46767;SDS011;69007;48.978;18.066;2023-07-16T03:25:29;8.40;;;5.63;;
46767;SDS011;69007;48.978;18.066;2023-07-16T03:27:54;6.43;;;5.60;;
46767;SDS011;69007;48.978;18.066;2023-07-16T03:30:20;11.05;;;5.47;;
46767;SDS011;69007;48.978;18.066;2023-07-16T03:32:45;7.88;;;5.65;;
46767;SDS011;69007;48.978;18.066;2023-07-16T03:35:11;5.90;;;5.30;;
46767;SDS011;69007;48.978;18.066;2023-07-16T03:37:36;6.05;;;5.03;;
46767;SDS011;69007;48.978;18.066;2023-07-16T03:42:39;6.95;;;4.80;;
46767;SDS011;69007;48.978;18.066;2023-07-16T03:45:05;7.20;;;4.70;;
46767;SDS011;69007;48.978;18.066;2023-07-16T03:47:31;7.20;;;5.07;;
46767;SDS011;69007;48.978;18.066;2023-07-16T03:49:56;5.72;;;4.68;;
46767;SDS011;69007;48.978;18.066;2023-07-16T03:52:21;4.60;;;4.20;;
46767;SDS011;69007;48.978;18.066;2023-07-16T03:54:47;7.38;;;5.05;;
46767;SDS011;69007;48.978;18.066;2023-07-16T03:57:12;4.47;;;4.10;;
46767;SDS011;69007;48.978;18.066;2023-07-16T03:59:37;7.43;;;5.85;;
46767;SDS011;69007;48.978;18.066;2023-07-16T04:02:03;5.07;;;4.65;;
46767;SDS011;69007;48.978;18.066;2023-07-16T04:04:28;6.38;;;4.50;;
46767;SDS011;69007;48.978;18.066;2023-07-16T04:06:53;7.03;;;4.40;;
46767;SDS011;69007;48.978;18.066;2023-07-16T04:09:20;7.40;;;4.32;;
46767;SDS011;69007;48.978;18.066;2023-07-16T04:11:45;4.57;;;4.15;;
46767;SDS011;69007;48.978;18.066;2023-07-16T04:14:11;6.40;;;4.50;;
46767;SDS011;69007;48.978;18.066;2023-07-16T04:16:36;7.28;;;4.57;;
46767;SDS011;69007;48.978;18.066;2023-07-16T04:19:01;5.43;;;3.85;;
46767;SDS011;69007;48.978;18.066;2023-07-16T04:21:27;4.80;;;4.18;;
46767;SDS011;69007;48.978;18.066;2023-07-16T04:23:52;7.75;;;4.00;;
46767;SDS011;69007;48.978;18.066;2023-07-16T04:26:17;8.50;;;4.07;;
46767;SDS011;69007;48.978;18.066;2023-07-16T04:28:43;6.57;;;4.38;;
46767;SDS011;69007;48.978;18.066;2023-07-16T04:31:08;8.35;;;7.55;;
46767;SDS011;69007;48.978;18.066;2023-07-16T04:33:33;25.50;;;19.35;;
46767;SDS011;69007;48.978;18.066;2023-07-16T04:35:59;11.20;;;8.35;;
46767;SDS011;69007;48.978;18.066;2023-07-16T04:38:24;8.95;;;7.65;;
46767;SDS011;69007;48.978;18.066;2023-07-16T04:40:51;5.18;;;4.68;;
46767;SDS011;69007;48.978;18.066;2023-07-16T04:43:16;9.20;;;6.07;;
46767;SDS011;69007;48.978;18.066;2023-07-16T04:45:43;6.18;;;4.30;;
46767;SDS011;69007;48.978;18.066;2023-07-16T04:48:11;4.40;;;4.00;;
46767;SDS011;69007;48.978;18.066;2023-07-16T04:50:38;5.60;;;3.42;;
46767;SDS011;69007;48.978;18.066;2023-07-16T04:53:03;4.03;;;3.72;;
46767;SDS011;69007;48.978;18.066;2023-07-16T04:55:28;4.35;;;3.92;;
46767;SDS011;69007;48.978;18.066;2023-07-16T04:57:54;4.40;;;4.00;;
46767;SDS011;69007;48.978;18.066;2023-07-16T05:00:19;5.75;;;3.90;;
46767;SDS011;69007;48.978;18.066;2023-07-16T05:02:45;5.93;;;3.72;;
46767;SDS011;69007;48.978;18.066;2023-07-16T05:05:10;8.50;;;4.55;;
46767;SDS011;69007;48.978;18.066;2023-07-16T05:07:36;5.22;;;3.53;;
46767;SDS011;69007;48.978;18.066;2023-07-16T05:10:01;5.15;;;3.65;;
46767;SDS011;69007;48.978;18.066;2023-07-16T05:12:26;6.53;;;3.90;;
46767;SDS011;69007;48.978;18.066;2023-07-16T05:14:52;4.85;;;3.72;;
46767;SDS011;69007;48.978;18.066;2023-07-16T05:17:17;7.13;;;3.17;;
46767;SDS011;69007;48.978;18.066;2023-07-16T05:19:42;8.18;;;3.40;;
46767;SDS011;69007;48.978;18.066;2023-07-16T05:22:08;6.28;;;3.75;;
46767;SDS011;69007;48.978;18.066;2023-07-16T05:24:33;7.55;;;4.18;;
46767;SDS011;69007;48.978;18.066;2023-07-16T05:26:58;3.95;;;3.22;;
46767;SDS011;69007;48.978;18.066;2023-07-16T05:29:24;4.03;;;3.63;;
46767;SDS011;69007;48.978;18.066;2023-07-16T05:31:49;3.42;;;3.00;;
46767;SDS011;69007;48.978;18.066;2023-07-16T05:34:14;8.43;;;3.42;;
46767;SDS011;69007;48.978;18.066;2023-07-16T05:36:41;3.60;;;2.90;;
46767;SDS011;69007;48.978;18.066;2023-07-16T05:39:07;6.10;;;3.17;;
46767;SDS011;69007;48.978;18.066;2023-07-16T05:41:33;4.30;;;3.08;;
46767;SDS011;69007;48.978;18.066;2023-07-16T05:43:59;5.28;;;3.30;;
46767;SDS011;69007;48.978;18.066;2023-07-16T05:46:24;4.25;;;3.53;;
46767;SDS011;69007;48.978;18.066;2023-07-16T05:48:49;7.30;;;3.22;;
46767;SDS011;69007;48.978;18.066;2023-07-16T05:51:15;3.35;;;3.08;;
46767;SDS011;69007;48.978;18.066;2023-07-16T05:53:40;10.13;;;3.10;;
46767;SDS011;69007;48.978;18.066;2023-07-16T05:56:05;9.82;;;3.30;;
46767;SDS011;69007;48.978;18.066;2023-07-16T05:58:31;8.68;;;3.20;;
46767;SDS011;69007;48.978;18.066;2023-07-16T06:00:56;4.35;;;2.97;;
46767;SDS011;69007;48.978;18.066;2023-07-16T06:03:21;3.95;;;3.00;;
46767;SDS011;69007;48.978;18.066;2023-07-16T06:05:47;3.75;;;2.90;;
46767;SDS011;69007;48.978;18.066;2023-07-16T06:08:12;3.13;;;2.80;;
46767;SDS011;69007;48.978;18.066;2023-07-16T06:10:38;6.00;;;3.10;;
46767;SDS011;69007;48.978;18.066;2023-07-16T06:13:04;3.30;;;3.00;;
46767;SDS011;69007;48.978;18.066;2023-07-16T06:15:29;4.68;;;2.70;;
46767;SDS011;69007;48.978;18.066;2023-07-16T06:17:55;5.55;;;3.05;;
46767;SDS011;69007;48.978;18.066;2023-07-16T06:20:20;5.35;;;2.90;;
46767;SDS011;69007;48.978;18.066;2023-07-16T06:22:45;4.75;;;2.90;;
46767;SDS011;69007;48.978;18.066;2023-07-16T06:25:11;5.75;;;3.10;;
46767;SDS011;69007;48.978;18.066;2023-07-16T06:27:37;5.93;;;2.85;;
46767;SDS011;69007;48.978;18.066;2023-07-16T06:30:03;10.23;;;3.28;;
46767;SDS011;69007;48.978;18.066;2023-07-16T06:32:30;6.72;;;2.78;;
46767;SDS011;69007;48.978;18.066;2023-07-16T06:34:56;4.57;;;3.15;;
46767;SDS011;69007;48.978;18.066;2023-07-16T06:37:21;8.52;;;3.55;;
46767;SDS011;69007;48.978;18.066;2023-07-16T06:39:48;8.50;;;3.58;;
46767;SDS011;69007;48.978;18.066;2023-07-16T06:42:14;3.17;;;2.88;;
46767;SDS011;69007;48.978;18.066;2023-07-16T06:44:39;7.13;;;3.60;;
46767;SDS011;69007;48.978;18.066;2023-07-16T06:47:05;4.18;;;3.72;;
46767;SDS011;69007;48.978;18.066;2023-07-16T06:49:31;8.07;;;3.88;;
46767;SDS011;69007;48.978;18.066;2023-07-16T06:51:57;8.07;;;4.07;;
46767;SDS011;69007;48.978;18.066;2023-07-16T06:54:22;4.35;;;3.95;;
46767;SDS011;69007;48.978;18.066;2023-07-16T06:56:47;7.13;;;4.30;;
46767;SDS011;69007;48.978;18.066;2023-07-16T06:59:13;4.60;;;4.20;;
46767;SDS011;69007;48.978;18.066;2023-07-16T07:01:38;6.97;;;4.85;;
46767;SDS011;69007;48.978;18.066;2023-07-16T07:04:03;5.03;;;4.60;;
46767;SDS011;69007;48.978;18.066;2023-07-16T07:06:29;6.72;;;4.72;;
46767;SDS011;69007;48.978;18.066;2023-07-16T07:08:54;9.02;;;4.88;;
46767;SDS011;69007;48.978;18.066;2023-07-16T07:11:20;5.32;;;4.65;;
46767;SDS011;69007;48.978;18.066;2023-07-16T07:13:45;7.05;;;4.40;;
46767;SDS011;69007;48.978;18.066;2023-07-16T07:16:10;7.15;;;4.50;;
46767;SDS011;69007;48.978;18.066;2023-07-16T07:18:36;5.55;;;5.00;;
46767;SDS011;69007;48.978;18.066;2023-07-16T07:21:01;8.18;;;4.85;;
46767;SDS011;69007;48.978;18.066;2023-07-16T07:23:27;7.05;;;4.85;;
46767;SDS011;69007;48.978;18.066;2023-07-16T07:25:52;7.63;;;5.75;;
46767;SDS011;69007;48.978;18.066;2023-07-16T07:28:18;6.00;;;5.43;;
46767;SDS011;69007;48.978;18.066;2023-07-16T07:30:44;5.88;;;5.00;;
46767;SDS011;69007;48.978;18.066;2023-07-16T07:33:10;7.10;;;5.68;;
46767;SDS011;69007;48.978;18.066;2023-07-16T07:35:35;5.38;;;4.80;;
46767;SDS011;69007;48.978;18.066;2023-07-16T07:38:01;6.35;;;4.78;;
46767;SDS011;69007;48.978;18.066;2023-07-16T07:40:26;7.57;;;5.38;;
46767;SDS011;69007;48.978;18.066;2023-07-16T07:42:52;6.53;;;5.20;;
46767;SDS011;69007;48.978;18.066;2023-07-16T07:45:17;6.40;;;5.45;;
46767;SDS011;69007;48.978;18.066;2023-07-16T07:47:42;10.73;;;5.82;;
46767;SDS011;69007;48.978;18.066;2023-07-16T07:50:08;6.72;;;5.40;;
46767;SDS011;69007;48.978;18.066;2023-07-16T07:52:34;7.90;;;5.15;;
46767;SDS011;69007;48.978;18.066;2023-07-16T07:54:59;6.05;;;5.07;;
46767;SDS011;69007;48.978;18.066;2023-07-16T07:57:24;11.10;;;5.20;;
46767;SDS011;69007;48.978;18.066;2023-07-16T07:59:50;11.20;;;4.95;;
46767;SDS011;69007;48.978;18.066;2023-07-16T08:02:20;6.07;;;5.47;;
46767;SDS011;69007;48.978;18.066;2023-07-16T08:04:48;9.18;;;5.72;;
46767;SDS011;69007;48.978;18.066;2023-07-16T08:07:13;6.25;;;5.50;;
46767;SDS011;69007;48.978;18.066;2023-07-16T08:09:38;6.05;;;5.47;;
46767;SDS011;69007;48.978;18.066;2023-07-16T08:12:04;8.63;;;5.03;;
46767;SDS011;69007;48.978;18.066;2023-07-16T08:14:29;6.25;;;5.72;;
46767;SDS011;69007;48.978;18.066;2023-07-16T08:16:55;6.47;;;5.60;;
46767;SDS011;69007;48.978;18.066;2023-07-16T08:19:20;10.32;;;5.30;;
46767;SDS011;69007;48.978;18.066;2023-07-16T08:21:45;6.82;;;5.20;;
46767;SDS011;69007;48.978;18.066;2023-07-16T08:24:11;9.38;;;5.57;;
46767;SDS011;69007;48.978;18.066;2023-07-16T08:26:36;10.60;;;5.20;;
46767;SDS011;69007;48.978;18.066;2023-07-16T08:29:01;7.60;;;5.30;;
46767;SDS011;69007;48.978;18.066;2023-07-16T08:31:27;6.15;;;5.65;;
46767;SDS011;69007;48.978;18.066;2023-07-16T08:33:53;7.53;;;5.72;;
46767;SDS011;69007;48.978;18.066;2023-07-16T08:36:18;8.60;;;5.57;;
46767;SDS011;69007;48.978;18.066;2023-07-16T08:38:44;6.80;;;5.28;;
46767;SDS011;69007;48.978;18.066;2023-07-16T08:41:09;12.05;;;6.53;;
46767;SDS011;69007;48.978;18.066;2023-07-16T08:43:35;7.97;;;5.65;;
46767;SDS011;69007;48.978;18.066;2023-07-16T08:46:01;5.78;;;5.20;;
46767;SDS011;69007;48.978;18.066;2023-07-16T08:48:28;6.30;;;5.70;;
46767;SDS011;69007;48.978;18.066;2023-07-16T08:50:53;9.77;;;5.20;;
46767;SDS011;69007;48.978;18.066;2023-07-16T08:53:22;7.18;;;5.88;;
46767;SDS011;69007;48.978;18.066;2023-07-16T08:55:47;7.10;;;6.05;;
46767;SDS011;69007;48.978;18.066;2023-07-16T08:58:13;7.45;;;5.45;;
46767;SDS011;69007;48.978;18.066;2023-07-16T09:00:40;11.60;;;6.05;;
46767;SDS011;69007;48.978;18.066;2023-07-16T09:03:07;8.65;;;6.30;;
46767;SDS011;69007;48.978;18.066;2023-07-16T09:05:33;7.30;;;6.70;;
46767;SDS011;69007;48.978;18.066;2023-07-16T09:08:00;9.45;;;5.80;;
46767;SDS011;69007;48.978;18.066;2023-07-16T09:10:26;7.95;;;5.93;;
46767;SDS011;69007;48.978;18.066;2023-07-16T09:12:51;6.25;;;5.65;;
46767;SDS011;69007;48.978;18.066;2023-07-16T09:15:17;10.63;;;6.00;;
46767;SDS011;69007;48.978;18.066;2023-07-16T09:17:47;6.15;;;5.55;;
46767;SDS011;69007;48.978;18.066;2023-07-16T09:20:17;7.00;;;5.70;;
46767;SDS011;69007;48.978;18.066;2023-07-16T09:22:43;8.38;;;5.65;;
46767;SDS011;69007;48.978;18.066;2023-07-16T09:25:09;6.82;;;6.00;;
46767;SDS011;69007;48.978;18.066;2023-07-16T09:27:35;8.45;;;5.57;;
46767;SDS011;69007;48.978;18.066;2023-07-16T09:30:02;7.25;;;5.90;;
46767;SDS011;69007;48.978;18.066;2023-07-16T09:32:36;10.10;;;5.70;;
46767;SDS011;69007;48.978;18.066;2023-07-16T09:35:14;7.38;;;5.00;;
46767;SDS011;69007;48.978;18.066;2023-07-16T09:37:40;10.02;;;5.57;;
46767;SDS011;69007;48.978;18.066;2023-07-16T09:40:08;7.30;;;5.20;;
46767;SDS011;69007;48.978;18.066;2023-07-16T09:42:38;8.43;;;5.63;;
46767;SDS011;69007;48.978;18.066;2023-07-16T09:45:08;6.53;;;5.82;;
46767;SDS011;69007;48.978;18.066;2023-07-16T09:47:41;9.95;;;5.45;;
46767;SDS011;69007;48.978;18.066;2023-07-16T09:50:07;7.80;;;5.35;;
46767;SDS011;69007;48.978;18.066;2023-07-16T09:52:33;7.43;;;5.03;;
46767;SDS011;69007;48.978;18.066;2023-07-16T09:55:01;7.72;;;4.82;;
46767;SDS011;69007;48.978;18.066;2023-07-16T09:57:28;10.25;;;5.03;;
46767;SDS011;69007;48.978;18.066;2023-07-16T10:00:05;6.03;;;5.15;;
46767;SDS011;69007;48.978;18.066;2023-07-16T10:02:36;6.95;;;5.00;;
46767;SDS011;69007;48.978;18.066;2023-07-16T10:05:15;5.20;;;4.70;;
46767;SDS011;69007;48.978;18.066;2023-07-16T10:07:42;6.43;;;5.72;;
46767;SDS011;69007;48.978;18.066;2023-07-16T10:10:08;8.77;;;5.28;;
46767;SDS011;69007;48.978;18.066;2023-07-16T10:12:35;5.65;;;5.15;;
46767;SDS011;69007;48.978;18.066;2023-07-16T10:15:01;5.85;;;5.35;;
46767;SDS011;69007;48.978;18.066;2023-07-16T10:17:30;9.63;;;5.72;;
46767;SDS011;69007;48.978;18.066;2023-07-16T10:20:05;7.75;;;5.55;;
46767;SDS011;69007;48.978;18.066;2023-07-16T10:22:46;12.52;;;6.85;;
46767;SDS011;69007;48.978;18.066;2023-07-16T10:27:43;7.50;;;5.03;;
46767;SDS011;69007;48.978;18.066;2023-07-16T10:30:11;7.25;;;5.38;;
46767;SDS011;69007;48.978;18.066;2023-07-16T10:32:37;8.80;;;5.60;;
46767;SDS011;69007;48.978;18.066;2023-07-16T10:35:03;7.53;;;5.47;;
46767;SDS011;69007;48.978;18.066;2023-07-16T10:37:30;6.22;;;4.93;;
46767;SDS011;69007;48.978;18.066;2023-07-16T10:39:57;7.53;;;5.70;;
46767;SDS011;69007;48.978;18.066;2023-07-16T10:42:25;6.15;;;4.95;;
46767;SDS011;69007;48.978;18.066;2023-07-16T10:44:52;11.85;;;5.10;;
46767;SDS011;69007;48.978;18.066;2023-07-16T10:47:21;5.90;;;4.70;;
46767;SDS011;69007;48.978;18.066;2023-07-16T10:49:48;7.95;;;4.88;;
46767;SDS011;69007;48.978;18.066;2023-07-16T10:52:14;5.20;;;4.70;;
46767;SDS011;69007;48.978;18.066;2023-07-16T10:54:40;7.03;;;5.20;;
46767;SDS011;69007;48.978;18.066;2023-07-16T10:57:06;8.98;;;5.00;;
46767;SDS011;69007;48.978;18.066;2023-07-16T10:59:32;9.57;;;5.00;;
46767;SDS011;69007;48.978;18.066;2023-07-16T11:01:58;5.93;;;5.15;;
46767;SDS011;69007;48.978;18.066;2023-07-16T11:04:23;8.02;;;5.45;;
46767;SDS011;69007;48.978;18.066;2023-07-16T11:06:52;5.72;;;4.82;;
46767;SDS011;69007;48.978;18.066;2023-07-16T11:09:18;7.50;;;4.68;;
46767;SDS011;69007;48.978;18.066;2023-07-16T11:11:44;5.63;;;5.03;;
46767;SDS011;69007;48.978;18.066;2023-07-16T11:14:10;7.15;;;4.65;;
46767;SDS011;69007;48.978;18.066;2023-07-16T11:16:36;6.63;;;4.78;;
46767;SDS011;69007;48.978;18.066;2023-07-16T11:19:05;8.45;;;5.30;;
46767;SDS011;69007;48.978;18.066;2023-07-16T11:21:33;9.80;;;5.05;;
46767;SDS011;69007;48.978;18.066;2023-07-16T11:24:12;6.63;;;5.63;;
46767;SDS011;69007;48.978;18.066;2023-07-16T11:26:38;11.20;;;5.05;;
46767;SDS011;69007;48.978;18.066;2023-07-16T11:29:13;8.23;;;5.40;;
46767;SDS011;69007;48.978;18.066;2023-07-16T11:31:40;8.38;;;5.38;;
46767;SDS011;69007;48.978;18.066;2023-07-16T11:34:12;5.57;;;5.00;;
46767;SDS011;69007;48.978;18.066;2023-07-16T11:36:38;9.57;;;5.38;;
46767;SDS011;69007;48.978;18.066;2023-07-16T11:39:04;10.38;;;5.38;;
46767;SDS011;69007;48.978;18.066;2023-07-16T11:41:30;8.65;;;4.75;;
46767;SDS011;69007;48.978;18.066;2023-07-16T11:43:59;15.07;;;5.25;;
46767;SDS011;69007;48.978;18.066;2023-07-16T11:46:31;12.43;;;4.80;;
46767;SDS011;69007;48.978;18.066;2023-07-16T11:49:00;6.85;;;5.05;;
46767;SDS011;69007;48.978;18.066;2023-07-16T11:51:26;7.43;;;5.28;;
46767;SDS011;69007;48.978;18.066;2023-07-16T11:53:52;7.63;;;4.88;;
46767;SDS011;69007;48.978;18.066;2023-07-16T11:56:17;9.40;;;4.57;;
46767;SDS011;69007;48.978;18.066;2023-07-16T11:58:42;5.10;;;4.30;;
46767;SDS011;69007;48.978;18.066;2023-07-16T12:01:08;6.20;;;4.65;;
46767;SDS011;69007;48.978;18.066;2023-07-16T12:03:34;6.80;;;4.80;;
46767;SDS011;69007;48.978;18.066;2023-07-16T12:05:59;5.90;;;4.20;;
46767;SDS011;69007;48.978;18.066;2023-07-16T12:08:25;5.03;;;4.50;;
46767;SDS011;69007;48.978;18.066;2023-07-16T12:10:50;6.90;;;4.55;;
46767;SDS011;69007;48.978;18.066;2023-07-16T12:13:15;5.20;;;4.53;;
46767;SDS011;69007;48.978;18.066;2023-07-16T12:15:41;5.88;;;5.10;;
46767;SDS011;69007;48.978;18.066;2023-07-16T12:18:06;7.07;;;4.70;;
46767;SDS011;69007;48.978;18.066;2023-07-16T12:20:33;9.20;;;4.85;;
46767;SDS011;69007;48.978;18.066;2023-07-16T12:22:59;5.13;;;4.13;;
46767;SDS011;69007;48.978;18.066;2023-07-16T12:25:24;9.18;;;4.85;;
46767;SDS011;69007;48.978;18.066;2023-07-16T12:27:50;10.18;;;4.63;;
46767;SDS011;69007;48.978;18.066;2023-07-16T12:30:15;9.25;;;5.38;;
46767;SDS011;69007;48.978;18.066;2023-07-16T12:32:41;6.93;;;4.47;;
46767;SDS011;69007;48.978;18.066;2023-07-16T12:35:06;7.75;;;5.20;;
46767;SDS011;69007;48.978;18.066;2023-07-16T12:37:32;8.40;;;4.22;;
46767;SDS011;69007;48.978;18.066;2023-07-16T12:39:57;10.50;;;4.63;;
46767;SDS011;69007;48.978;18.066;2023-07-16T12:42:22;7.18;;;4.75;;
46767;SDS011;69007;48.978;18.066;2023-07-16T12:44:48;8.45;;;4.65;;
46767;SDS011;69007;48.978;18.066;2023-07-16T12:47:14;9.52;;;4.72;;
46767;SDS011;69007;48.978;18.066;2023-07-16T12:49:40;15.60;;;5.00;;
46767;SDS011;69007;48.978;18.066;2023-07-16T12:52:05;10.48;;;5.35;;
46767;SDS011;69007;48.978;18.066;2023-07-16T12:54:31;5.43;;;4.38;;
46767;SDS011;69007;48.978;18.066;2023-07-16T12:56:56;5.10;;;4.60;;
46767;SDS011;69007;48.978;18.066;2023-07-16T12:59:22;5.22;;;4.72;;
46767;SDS011;69007;48.978;18.066;2023-07-16T13:01:49;9.55;;;5.10;;
46767;SDS011;69007;48.978;18.066;2023-07-16T13:04:14;7.35;;;4.65;;
46767;SDS011;69007;48.978;18.066;2023-07-16T13:06:40;9.18;;;4.90;;
46767;SDS011;69007;48.978;18.066;2023-07-16T13:09:05;6.30;;;4.50;;
46767;SDS011;69007;48.978;18.066;2023-07-16T13:11:31;7.65;;;4.72;;
46767;SDS011;69007;48.978;18.066;2023-07-16T13:13:56;11.23;;;4.97;;
46767;SDS011;69007;48.978;18.066;2023-07-16T13:16:21;9.32;;;4.43;;
46767;SDS011;69007;48.978;18.066;2023-07-16T13:18:47;9.02;;;4.70;;
46767;SDS011;69007;48.978;18.066;2023-07-16T13:21:12;6.60;;;4.90;;
46767;SDS011;69007;48.978;18.066;2023-07-16T13:23:37;6.72;;;4.57;;
46767;SDS011;69007;48.978;18.066;2023-07-16T13:26:03;7.85;;;4.75;;
46767;SDS011;69007;48.978;18.066;2023-07-16T13:28:28;10.40;;;4.72;;
46767;SDS011;69007;48.978;18.066;2023-07-16T13:30:54;6.50;;;4.97;;
46767;SDS011;69007;48.978;18.066;2023-07-16T13:33:19;5.43;;;4.18;;
46767;SDS011;69007;48.978;18.066;2023-07-16T13:35:44;13.18;;;4.60;;
46767;SDS011;69007;48.978;18.066;2023-07-16T13:38:10;15.98;;;4.70;;
46767;SDS011;69007;48.978;18.066;2023-07-16T13:40:35;9.50;;;4.70;;
46767;SDS011;69007;48.978;18.066;2023-07-16T13:43:00;9.75;;;3.95;;
46767;SDS011;69007;48.978;18.066;2023-07-16T13:45:26;9.55;;;5.30;;
46767;SDS011;69007;48.978;18.066;2023-07-16T13:47:51;6.00;;;4.03;;
46767;SDS011;69007;48.978;18.066;2023-07-16T13:50:17;4.90;;;4.30;;
46767;SDS011;69007;48.978;18.066;2023-07-16T13:52:43;9.52;;;4.88;;
46767;SDS011;69007;48.978;18.066;2023-07-16T13:55:09;6.57;;;4.03;;
46767;SDS011;69007;48.978;18.066;2023-07-16T13:57:35;4.70;;;4.18;;
46767;SDS011;69007;48.978;18.066;2023-07-16T14:00:01;8.57;;;3.88;;
46767;SDS011;69007;48.978;18.066;2023-07-16T14:02:29;4.80;;;4.05;;
46767;SDS011;69007;48.978;18.066;2023-07-16T14:04:54;7.97;;;4.10;;
46767;SDS011;69007;48.978;18.066;2023-07-16T14:07:19;7.07;;;4.15;;
46767;SDS011;69007;48.978;18.066;2023-07-16T14:09:45;9.27;;;4.00;;
46767;SDS011;69007;48.978;18.066;2023-07-16T14:12:11;6.03;;;5.03;;
46767;SDS011;69007;48.978;18.066;2023-07-16T14:14:36;5.35;;;4.28;;
46767;SDS011;69007;48.978;18.066;2023-07-16T14:17:01;12.57;;;5.00;;
46767;SDS011;69007;48.978;18.066;2023-07-16T14:19:27;6.63;;;4.22;;
46767;SDS011;69007;48.978;18.066;2023-07-16T14:21:54;7.97;;;4.43;;
46767;SDS011;69007;48.978;18.066;2023-07-16T14:24:20;8.00;;;4.65;;
46767;SDS011;69007;48.978;18.066;2023-07-16T14:26:45;7.93;;;4.68;;
46767;SDS011;69007;48.978;18.066;2023-07-16T14:29:11;4.82;;;4.28;;
46767;SDS011;69007;48.978;18.066;2023-07-16T14:31:36;6.20;;;5.05;;
46767;SDS011;69007;48.978;18.066;2023-07-16T14:34:02;6.00;;;4.40;;
46767;SDS011;69007;48.978;18.066;2023-07-16T14:36:27;6.55;;;4.43;;